sensor_id;sensor_type;location;lat;lon;timestamp;pressure;altitude;pressure_sealevel;temperature;humidity
72685;BME280;61365;52.162;4.500;2024-02-21T00:01:03;102107.13;;;10.29;100.00
72685;BME280;61365;52.162;4.500;2024-02-21T00:03:30;102116.09;;;10.39;100.00
72685;BME280;61365;52.162;4.500;2024-02-21T00:05:56;102115.94;;;10.31;100.00
72685;BME280;61365;52.162;4.500;2024-02-21T00:08:22;102111.72;;;10.40;100.00
72685;BME280;61365;52.162;4.500;2024-02-21T00:10:48;102109.84;;;10.34;100.00
72685;BME280;61365;52.162;4.500;2024-02-21T00:13:15;102102.84;;;10.34;100.00
72685;BME280;61365;52.162;4.500;2024-02-21T00:15:41;102096.00;;;10.40;100.00
72685;BME280;61365;52.162;4.500;2024-02-21T00:18:07;102099.97;;;10.20;100.00
72685;BME280;61365;52.162;4.500;2024-02-21T00:20:33;102109.50;;;10.17;100.00
72685;BME280;61365;52.162;4.500;2024-02-21T00:22:59;102116.59;;;10.22;100.00
72685;BME280;61365;52.162;4.500;2024-02-21T00:25:25;102120.66;;;10.08;100.00
72685;BME280;61365;52.162;4.500;2024-02-21T00:27:51;102118.88;;;10.05;100.00
72685;BME280;61365;52.162;4.500;2024-02-21T00:30:19;102120.06;;;10.21;100.00
72685;BME280;61365;52.162;4.500;2024-02-21T00:32:45;102112.25;;;10.23;100.00
72685;BME280;61365;52.162;4.500;2024-02-21T00:35:11;102108.78;;;10.24;100.00
72685;BME280;61365;52.162;4.500;2024-02-21T00:37:38;102105.88;;;10.12;100.00
72685;BME280;61365;52.162;4.500;2024-02-21T00:40:04;102103.66;;;10.30;100.00
72685;BME280;61365;52.162;4.500;2024-02-21T00:42:31;102091.81;;;10.08;100.00
72685;BME280;61365;52.162;4.500;2024-02-21T00:44:57;102091.03;;;10.12;100.00
72685;BME280;61365;52.162;4.500;2024-02-21T00:47:23;102092.59;;;10.04;100.00
72685;BME280;61365;52.162;4.500;2024-02-21T00:49:49;102103.47;;;10.21;100.00
72685;BME280;61365;52.162;4.500;2024-02-21T00:52:15;102103.47;;;10.22;100.00
72685;BME280;61365;52.162;4.500;2024-02-21T00:54:42;102100.06;;;10.27;100.00
72685;BME280;61365;52.162;4.500;2024-02-21T00:57:08;102099.03;;;10.18;100.00
72685;BME280;61365;52.162;4.500;2024-02-21T00:59:34;102090.31;;;10.19;100.00
72685;BME280;61365;52.162;4.500;2024-02-21T01:02:00;102088.38;;;10.11;100.00
72685;BME280;61365;52.162;4.500;2024-02-21T01:04:26;102072.97;;;10.28;100.00
72685;BME280;61365;52.162;4.500;2024-02-21T01:06:52;102078.06;;;10.18;100.00
72685;BME280;61365;52.162;4.500;2024-02-21T01:09:18;102080.31;;;10.43;100.00
72685;BME280;61365;52.162;4.500;2024-02-21T01:11:44;102081.22;;;10.43;100.00
72685;BME280;61365;52.162;4.500;2024-02-21T01:14:10;102071.41;;;10.36;100.00
72685;BME280;61365;52.162;4.500;2024-02-21T01:16:37;102066.66;;;10.18;100.00
72685;BME280;61365;52.162;4.500;2024-02-21T01:19:03;102065.88;;;10.22;100.00
72685;BME280;61365;52.162;4.500;2024-02-21T01:21:29;102048.38;;;10.21;100.00
72685;BME280;61365;52.162;4.500;2024-02-21T01:23:55;102059.25;;;10.40;100.00
72685;BME280;61365;52.162;4.500;2024-02-21T01:26:21;102054.47;;;10.20;100.00
72685;BME280;61365;52.162;4.500;2024-02-21T01:28:47;102044.97;;;10.27;100.00
72685;BME280;61365;52.162;4.500;2024-02-21T01:31:14;102048.50;;;10.27;100.00
72685;BME280;61365;52.162;4.500;2024-02-21T01:33:40;102044.81;;;10.19;100.00
72685;BME280;61365;52.162;4.500;2024-02-21T01:36:07;102051.25;;;10.33;100.00
72685;BME280;61365;52.162;4.500;2024-02-21T01:38:33;102039.22;;;10.45;100.00
72685;BME280;61365;52.162;4.500;2024-02-21T01:40:59;102053.88;;;10.33;100.00
72685;BME280;61365;52.162;4.500;2024-02-21T01:43:26;102040.44;;;10.18;100.00
72685;BME280;61365;52.162;4.500;2024-02-21T01:45:53;102049.78;;;10.46;100.00
72685;BME280;61365;52.162;4.500;2024-02-21T01:48:21;102038.72;;;10.64;100.00
72685;BME280;61365;52.162;4.500;2024-02-21T01:50:51;102038.25;;;10.40;100.00
72685;BME280;61365;52.162;4.500;2024-02-21T01:53:23;102028.63;;;10.39;100.00
72685;BME280;61365;52.162;4.500;2024-02-21T01:55:51;102028.00;;;10.52;100.00
72685;BME280;61365;52.162;4.500;2024-02-21T01:58:17;102018.34;;;10.51;100.00
72685;BME280;61365;52.162;4.500;2024-02-21T02:00:46;102010.31;;;10.42;100.00
72685;BME280;61365;52.162;4.500;2024-02-21T02:03:14;102020.78;;;10.40;100.00
72685;BME280;61365;52.162;4.500;2024-02-21T02:05:46;102003.19;;;10.37;100.00
72685;BME280;61365;52.162;4.500;2024-02-21T02:08:14;102017.50;;;10.52;100.00
72685;BME280;61365;52.162;4.500;2024-02-21T02:10:41;102013.91;;;10.47;100.00
72685;BME280;61365;52.162;4.500;2024-02-21T02:13:08;102006.66;;;10.35;100.00
72685;BME280;61365;52.162;4.500;2024-02-21T02:15:44;102000.72;;;10.42;100.00
72685;BME280;61365;52.162;4.500;2024-02-21T02:18:12;102010.28;;;10.40;100.00
72685;BME280;61365;52.162;4.500;2024-02-21T02:20:39;102003.84;;;10.24;100.00
72685;BME280;61365;52.162;4.500;2024-02-21T02:23:51;102006.84;;;10.43;100.00
72685;BME280;61365;52.162;4.500;2024-02-21T02:25:58;101999.00;;;10.44;100.00
72685;BME280;61365;52.162;4.500;2024-02-21T02:28:26;101994.56;;;10.42;100.00
72685;BME280;61365;52.162;4.500;2024-02-21T02:30:52;101994.41;;;10.34;100.00
72685;BME280;61365;52.162;4.500;2024-02-21T02:33:19;101985.78;;;10.40;100.00
72685;BME280;61365;52.162;4.500;2024-02-21T02:35:45;101981.09;;;10.25;100.00
72685;BME280;61365;52.162;4.500;2024-02-21T02:38:12;101977.81;;;10.35;100.00
72685;BME280;61365;52.162;4.500;2024-02-21T02:40:39;101985.66;;;10.33;100.00
72685;BME280;61365;52.162;4.500;2024-02-21T02:43:08;101976.94;;;10.36;100.00
72685;BME280;61365;52.162;4.500;2024-02-21T02:45:34;101976.19;;;10.42;100.00
72685;BME280;61365;52.162;4.500;2024-02-21T02:48:01;101978.13;;;10.52;100.00
72685;BME280;61365;52.162;4.500;2024-02-21T02:50:27;101975.00;;;10.26;100.00
72685;BME280;61365;52.162;4.500;2024-02-21T02:52:54;101968.31;;;10.40;100.00
72685;BME280;61365;52.162;4.500;2024-02-21T02:55:20;101962.03;;;10.33;100.00
72685;BME280;61365;52.162;4.500;2024-02-21T02:57:46;101966.22;;;10.24;100.00
72685;BME280;61365;52.162;4.500;2024-02-21T03:00:13;101959.31;;;10.27;100.00
72685;BME280;61365;52.162;4.500;2024-02-21T03:02:40;101951.38;;;10.24;100.00
72685;BME280;61365;52.162;4.500;2024-02-21T03:05:15;101943.19;;;10.07;100.00
72685;BME280;61365;52.162;4.500;2024-02-21T03:07:42;101948.91;;;10.33;100.00
72685;BME280;61365;52.162;4.500;2024-02-21T03:10:09;101942.66;;;10.27;100.00
72685;BME280;61365;52.162;4.500;2024-02-21T03:12:36;101938.22;;;10.22;100.00
72685;BME280;61365;52.162;4.500;2024-02-21T03:15:03;101930.44;;;10.29;100.00
72685;BME280;61365;52.162;4.500;2024-02-21T03:17:31;101914.56;;;10.19;100.00
72685;BME280;61365;52.162;4.500;2024-02-21T03:19:57;101914.63;;;10.24;100.00
72685;BME280;61365;52.162;4.500;2024-02-21T03:22:25;101913.81;;;10.27;100.00
72685;BME280;61365;52.162;4.500;2024-02-21T03:24:51;101913.75;;;10.24;100.00
72685;BME280;61365;52.162;4.500;2024-02-21T03:27:17;101922.69;;;10.33;100.00
72685;BME280;61365;52.162;4.500;2024-02-21T03:29:43;101923.63;;;10.37;100.00
72685;BME280;61365;52.162;4.500;2024-02-21T03:32:09;101919.03;;;10.27;100.00
72685;BME280;61365;52.162;4.500;2024-02-21T03:34:36;101906.19;;;10.39;100.00
72685;BME280;61365;52.162;4.500;2024-02-21T03:37:02;101893.13;;;10.44;100.00
72685;BME280;61365;52.162;4.500;2024-02-21T03:39:32;101897.25;;;10.31;100.00
72685;BME280;61365;52.162;4.500;2024-02-21T03:41:58;101896.63;;;10.43;100.00
72685;BME280;61365;52.162;4.500;2024-02-21T03:44:33;101892.50;;;10.08;100.00
72685;BME280;61365;52.162;4.500;2024-02-21T03:46:59;101890.81;;;10.12;100.00
72685;BME280;61365;52.162;4.500;2024-02-21T03:49:26;101902.44;;;10.28;100.00
72685;BME280;61365;52.162;4.500;2024-02-21T03:51:52;101899.09;;;10.36;100.00
72685;BME280;61365;52.162;4.500;2024-02-21T03:54:18;101899.75;;;10.23;100.00
72685;BME280;61365;52.162;4.500;2024-02-21T03:56:45;101894.53;;;10.25;100.00
72685;BME280;61365;52.162;4.500;2024-02-21T03:59:13;101882.19;;;10.17;100.00
72685;BME280;61365;52.162;4.500;2024-02-21T04:01:39;101877.94;;;10.26;100.00
72685;BME280;61365;52.162;4.500;2024-02-21T04:04:05;101883.22;;;10.29;100.00
72685;BME280;61365;52.162;4.500;2024-02-21T04:06:32;101876.88;;;10.14;100.00
72685;BME280;61365;52.162;4.500;2024-02-21T04:08:58;101882.31;;;10.25;100.00
72685;BME280;61365;52.162;4.500;2024-02-21T04:11:24;101886.59;;;10.21;100.00
72685;BME280;61365;52.162;4.500;2024-02-21T04:13:50;101892.13;;;10.37;100.00
72685;BME280;61365;52.162;4.500;2024-02-21T04:16:17;101891.31;;;10.40;100.00
72685;BME280;61365;52.162;4.500;2024-02-21T04:18:43;101886.88;;;10.37;100.00
72685;BME280;61365;52.162;4.500;2024-02-21T04:21:10;101879.75;;;10.30;100.00
72685;BME280;61365;52.162;4.500;2024-02-21T04:23:36;101873.84;;;10.42;100.00
72685;BME280;61365;52.162;4.500;2024-02-21T04:26:02;101872.06;;;10.39;100.00
72685;BME280;61365;52.162;4.500;2024-02-21T04:28:28;101869.44;;;10.39;100.00
72685;BME280;61365;52.162;4.500;2024-02-21T04:30:54;101865.13;;;10.43;100.00
72685;BME280;61365;52.162;4.500;2024-02-21T04:33:20;101867.59;;;10.36;100.00
72685;BME280;61365;52.162;4.500;2024-02-21T04:35:46;101866.03;;;10.45;100.00
72685;BME280;61365;52.162;4.500;2024-02-21T04:38:13;101850.88;;;10.28;100.00
72685;BME280;61365;52.162;4.500;2024-02-21T04:40:40;101849.00;;;10.22;100.00
72685;BME280;61365;52.162;4.500;2024-02-21T04:43:06;101838.63;;;10.27;100.00
72685;BME280;61365;52.162;4.500;2024-02-21T04:45:32;101843.81;;;10.24;100.00
72685;BME280;61365;52.162;4.500;2024-02-21T04:47:58;101840.97;;;10.10;100.00
72685;BME280;61365;52.162;4.500;2024-02-21T04:50:24;101835.66;;;10.05;100.00
72685;BME280;61365;52.162;4.500;2024-02-21T04:52:51;101842.00;;;10.21;100.00
72685;BME280;61365;52.162;4.500;2024-02-21T04:55:17;101843.56;;;10.10;100.00
72685;BME280;61365;52.162;4.500;2024-02-21T04:57:43;101833.38;;;10.29;100.00
72685;BME280;61365;52.162;4.500;2024-02-21T05:00:09;101822.53;;;10.07;100.00
72685;BME280;61365;52.162;4.500;2024-02-21T05:02:38;101820.75;;;10.04;100.00
72685;BME280;61365;52.162;4.500;2024-02-21T05:05:04;101820.88;;;10.12;100.00
72685;BME280;61365;52.162;4.500;2024-02-21T05:07:30;101813.06;;;10.15;100.00
72685;BME280;61365;52.162;4.500;2024-02-21T05:09:56;101799.00;;;10.10;100.00
72685;BME280;61365;52.162;4.500;2024-02-21T05:12:23;101792.22;;;10.23;100.00
72685;BME280;61365;52.162;4.500;2024-02-21T05:14:49;101792.03;;;10.14;100.00
72685;BME280;61365;52.162;4.500;2024-02-21T05:17:15;101798.31;;;10.22;100.00
72685;BME280;61365;52.162;4.500;2024-02-21T05:19:41;101802.34;;;10.01;100.00
72685;BME280;61365;52.162;4.500;2024-02-21T05:22:07;101783.19;;;10.07;100.00
72685;BME280;61365;52.162;4.500;2024-02-21T05:24:33;101768.28;;;10.03;100.00
72685;BME280;61365;52.162;4.500;2024-02-21T05:26:59;101777.78;;;9.98;100.00
72685;BME280;61365;52.162;4.500;2024-02-21T05:29:25;101766.59;;;10.06;100.00
72685;BME280;61365;52.162;4.500;2024-02-21T05:34:17;101760.00;;;9.76;100.00
72685;BME280;61365;52.162;4.500;2024-02-21T05:36:44;101768.47;;;9.63;100.00
72685;BME280;61365;52.162;4.500;2024-02-21T05:39:11;101758.84;;;9.62;100.00
72685;BME280;61365;52.162;4.500;2024-02-21T05:41:39;101757.97;;;9.61;100.00
72685;BME280;61365;52.162;4.500;2024-02-21T05:44:05;101751.81;;;9.58;100.00
72685;BME280;61365;52.162;4.500;2024-02-21T05:46:31;101749.13;;;9.55;100.00
72685;BME280;61365;52.162;4.500;2024-02-21T05:48:57;101747.44;;;9.60;100.00
72685;BME280;61365;52.162;4.500;2024-02-21T05:51:23;101746.59;;;9.61;100.00
72685;BME280;61365;52.162;4.500;2024-02-21T05:53:49;101741.22;;;9.52;100.00
72685;BME280;61365;52.162;4.500;2024-02-21T05:56:15;101748.09;;;9.46;100.00
72685;BME280;61365;52.162;4.500;2024-02-21T05:58:43;101748.16;;;9.50;100.00
72685;BME280;61365;52.162;4.500;2024-02-21T06:01:10;101729.88;;;9.54;100.00
72685;BME280;61365;52.162;4.500;2024-02-21T06:03:36;101735.97;;;9.52;100.00
72685;BME280;61365;52.162;4.500;2024-02-21T06:06:02;101736.09;;;9.58;100.00
72685;BME280;61365;52.162;4.500;2024-02-21T06:08:30;101740.25;;;9.46;100.00
72685;BME280;61365;52.162;4.500;2024-02-21T06:10:56;101737.63;;;9.46;100.00
72685;BME280;61365;52.162;4.500;2024-02-21T06:13:26;101739.59;;;9.60;100.00
72685;BME280;61365;52.162;4.500;2024-02-21T06:15:52;101731.72;;;9.60;100.00
72685;BME280;61365;52.162;4.500;2024-02-21T06:18:19;101742.31;;;9.66;100.00
72685;BME280;61365;52.162;4.500;2024-02-21T06:20:46;101741.41;;;9.64;100.00
72685;BME280;61365;52.162;4.500;2024-02-21T06:23:12;101753.53;;;9.59;100.00
72685;BME280;61365;52.162;4.500;2024-02-21T06:25:41;101747.38;;;9.54;100.00
72685;BME280;61365;52.162;4.500;2024-02-21T06:28:07;101753.72;;;9.67;100.00
72685;BME280;61365;52.162;4.500;2024-02-21T06:30:33;101750.03;;;9.57;100.00
72685;BME280;61365;52.162;4.500;2024-02-21T06:33:00;101750.78;;;9.50;100.00
72685;BME280;61365;52.162;4.500;2024-02-21T06:35:26;101748.31;;;9.59;100.00
72685;BME280;61365;52.162;4.500;2024-02-21T06:37:52;101743.88;;;9.55;100.00
72685;BME280;61365;52.162;4.500;2024-02-21T06:40:20;101736.88;;;9.54;100.00
72685;BME280;61365;52.162;4.500;2024-02-21T06:42:47;101734.41;;;9.61;100.00
72685;BME280;61365;52.162;4.500;2024-02-21T06:45:14;101726.84;;;9.80;100.00
72685;BME280;61365;52.162;4.500;2024-02-21T06:47:40;101718.75;;;9.66;100.00
72685;BME280;61365;52.162;4.500;2024-02-21T06:50:07;101713.50;;;9.65;100.00
72685;BME280;61365;52.162;4.500;2024-02-21T06:52:34;101703.91;;;9.67;100.00
72685;BME280;61365;52.162;4.500;2024-02-21T06:55:01;101710.75;;;9.57;100.00
72685;BME280;61365;52.162;4.500;2024-02-21T06:57:30;101703.72;;;9.56;100.00
72685;BME280;61365;52.162;4.500;2024-02-21T06:59:56;101701.97;;;9.55;100.00
72685;BME280;61365;52.162;4.500;2024-02-21T07:02:23;101706.44;;;9.62;100.00
72685;BME280;61365;52.162;4.500;2024-02-21T07:04:49;101701.97;;;9.55;100.00
72685;BME280;61365;52.162;4.500;2024-02-21T07:07:15;101695.19;;;9.68;100.00
72685;BME280;61365;52.162;4.500;2024-02-21T07:09:41;101694.06;;;9.53;100.00
72685;BME280;61365;52.162;4.500;2024-02-21T07:12:07;101688.03;;;9.57;100.00
72685;BME280;61365;52.162;4.500;2024-02-21T07:14:35;101681.75;;;9.48;100.00
72685;BME280;61365;52.162;4.500;2024-02-21T07:17:01;101680.03;;;9.50;100.00
72685;BME280;61365;52.162;4.500;2024-02-21T07:19:27;101684.50;;;9.55;100.00
72685;BME280;61365;52.162;4.500;2024-02-21T07:21:53;101670.34;;;9.45;100.00
72685;BME280;61365;52.162;4.500;2024-02-21T07:24:19;101666.22;;;9.58;100.00
72685;BME280;61365;52.162;4.500;2024-02-21T07:26:46;101655.78;;;9.61;100.00
72685;BME280;61365;52.162;4.500;2024-02-21T07:29:12;101649.44;;;9.49;100.00
72685;BME280;61365;52.162;4.500;2024-02-21T07:31:48;101650.47;;;9.57;100.00
72685;BME280;61365;52.162;4.500;2024-02-21T07:34:14;101644.38;;;9.59;100.00
72685;BME280;61365;52.162;4.500;2024-02-21T07:36:40;101645.06;;;9.48;100.00
72685;BME280;61365;52.162;4.500;2024-02-21T07:39:08;101646.72;;;9.41;100.00
72685;BME280;61365;52.162;4.500;2024-02-21T07:41:34;101643.19;;;9.40;100.00
72685;BME280;61365;52.162;4.500;2024-02-21T07:44:00;101640.66;;;9.45;100.00
72685;BME280;61365;52.162;4.500;2024-02-21T07:46:26;101645.13;;;9.51;100.00
72685;BME280;61365;52.162;4.500;2024-02-21T07:48:52;101626.84;;;9.54;100.00
72685;BME280;61365;52.162;4.500;2024-02-21T07:51:18;101631.28;;;9.58;100.00
72685;BME280;61365;52.162;4.500;2024-02-21T07:53:45;101621.66;;;9.58;100.00
72685;BME280;61365;52.162;4.500;2024-02-21T07:56:12;101622.28;;;9.43;100.00
72685;BME280;61365;52.162;4.500;2024-02-21T07:58:38;101621.59;;;9.54;100.00
72685;BME280;61365;52.162;4.500;2024-02-21T08:01:04;101622.50;;;9.57;100.00
72685;BME280;61365;52.162;4.500;2024-02-21T08:03:30;101617.97;;;9.47;100.00
72685;BME280;61365;52.162;4.500;2024-02-21T08:05:56;101614.59;;;9.54;100.00
72685;BME280;61365;52.162;4.500;2024-02-21T08:08:22;101612.09;;;9.62;100.00
72685;BME280;61365;52.162;4.500;2024-02-21T08:10:48;101603.31;;;9.58;100.00
72685;BME280;61365;52.162;4.500;2024-02-21T08:13:15;101598.44;;;9.85;100.00
72685;BME280;61365;52.162;4.500;2024-02-21T08:15:41;101590.09;;;9.52;100.00
72685;BME280;61365;52.162;4.500;2024-02-21T08:18:08;101595.25;;;9.46;100.00
72685;BME280;61365;52.162;4.500;2024-02-21T08:20:34;101583.16;;;9.54;100.00
72685;BME280;61365;52.162;4.500;2024-02-21T08:23:00;101588.34;;;9.50;100.00
72685;BME280;61365;52.162;4.500;2024-02-21T08:25:27;101586.53;;;9.47;100.00
72685;BME280;61365;52.162;4.500;2024-02-21T08:27:58;101590.00;;;9.46;100.00
72685;BME280;61365;52.162;4.500;2024-02-21T08:30:25;101584.06;;;9.56;100.00
72685;BME280;61365;52.162;4.500;2024-02-21T08:32:51;101570.06;;;9.54;100.00
72685;BME280;61365;52.162;4.500;2024-02-21T08:35:19;101569.25;;;9.57;100.00
72685;BME280;61365;52.162;4.500;2024-02-21T08:37:48;101558.50;;;9.40;100.00
72685;BME280;61365;52.162;4.500;2024-02-21T08:40:14;101572.34;;;9.31;100.00
72685;BME280;61365;52.162;4.500;2024-02-21T08:42:45;101573.03;;;9.22;100.00
72685;BME280;61365;52.162;4.500;2024-02-21T08:45:11;101573.94;;;9.24;100.00
72685;BME280;61365;52.162;4.500;2024-02-21T08:47:40;101560.97;;;9.30;100.00
72685;BME280;61365;52.162;4.500;2024-02-21T08:50:07;101567.22;;;9.40;100.00
72685;BME280;61365;52.162;4.500;2024-02-21T08:52:35;101566.47;;;9.48;100.00
72685;BME280;61365;52.162;4.500;2024-02-21T08:55:01;101553.31;;;9.44;100.00
72685;BME280;61365;52.162;4.500;2024-02-21T08:57:27;101553.94;;;9.28;100.00
72685;BME280;61365;52.162;4.500;2024-02-21T08:59:54;101552.38;;;9.39;100.00
72685;BME280;61365;52.162;4.500;2024-02-21T09:02:20;101542.69;;;9.35;100.00
72685;BME280;61365;52.162;4.500;2024-02-21T09:04:46;101527.75;;;9.28;100.00
72685;BME280;61365;52.162;4.500;2024-02-21T09:07:12;101526.22;;;9.41;100.00
72685;BME280;61365;52.162;4.500;2024-02-21T09:09:38;101508.78;;;9.46;100.00
72685;BME280;61365;52.162;4.500;2024-02-21T09:12:06;101509.69;;;9.46;100.00
72685;BME280;61365;52.162;4.500;2024-02-21T09:14:36;101509.84;;;9.59;100.00
72685;BME280;61365;52.162;4.500;2024-02-21T09:17:06;101494.78;;;9.41;100.00
72685;BME280;61365;52.162;4.500;2024-02-21T09:19:32;101490.53;;;9.52;100.00
72685;BME280;61365;52.162;4.500;2024-02-21T09:21:59;101485.06;;;9.32;100.00
72685;BME280;61365;52.162;4.500;2024-02-21T09:24:25;101477.31;;;9.41;100.00
72685;BME280;61365;52.162;4.500;2024-02-21T09:26:51;101475.53;;;9.39;100.00
72685;BME280;61365;52.162;4.500;2024-02-21T09:29:17;101462.41;;;9.37;100.00
72685;BME280;61365;52.162;4.500;2024-02-21T09:31:43;101464.09;;;9.35;100.00
72685;BME280;61365;52.162;4.500;2024-02-21T09:34:09;101451.34;;;9.58;100.00
72685;BME280;61365;52.162;4.500;2024-02-21T09:36:36;101435.63;;;9.58;100.00
72685;BME280;61365;52.162;4.500;2024-02-21T09:39:02;101435.63;;;9.58;100.00
72685;BME280;61365;52.162;4.500;2024-02-21T09:41:29;101426.84;;;9.56;100.00
72685;BME280;61365;52.162;4.500;2024-02-21T09:43:55;101427.03;;;9.69;100.00
72685;BME280;61365;52.162;4.500;2024-02-21T09:46:27;101417.44;;;9.72;100.00
72685;BME280;61365;52.162;4.500;2024-02-21T09:49:12;101416.53;;;9.69;100.00
72685;BME280;61365;52.162;4.500;2024-02-21T09:51:41;101405.13;;;9.65;100.00
72685;BME280;61365;52.162;4.500;2024-02-21T09:54:09;101403.56;;;9.80;100.00
72685;BME280;61365;52.162;4.500;2024-02-21T09:56:35;101396.44;;;9.68;100.00
72685;BME280;61365;52.162;4.500;2024-02-21T09:59:01;101388.53;;;9.65;100.00
72685;BME280;61365;52.162;4.500;2024-02-21T10:01:31;101383.25;;;9.63;100.00
72685;BME280;61365;52.162;4.500;2024-02-21T10:03:58;101373.59;;;9.57;100.00
72685;BME280;61365;52.162;4.500;2024-02-21T10:06:24;101380.50;;;9.51;100.00
72685;BME280;61365;52.162;4.500;2024-02-21T10:08:57;101374.50;;;9.61;100.00
72685;BME280;61365;52.162;4.500;2024-02-21T10:11:24;101362.38;;;9.68;100.00
72685;BME280;61365;52.162;4.500;2024-02-21T10:13:51;101354.53;;;9.74;100.00
72685;BME280;61365;52.162;4.500;2024-02-21T10:16:17;101345.78;;;9.72;100.00
72685;BME280;61365;52.162;4.500;2024-02-21T10:18:43;101335.19;;;9.61;100.00
72685;BME280;61365;52.162;4.500;2024-02-21T10:21:09;101320.56;;;9.83;100.00
72685;BME280;61365;52.162;4.500;2024-02-21T10:23:45;101312.59;;;9.72;100.00
72685;BME280;61365;52.162;4.500;2024-02-21T10:26:15;101318.72;;;9.71;100.00
72685;BME280;61365;52.162;4.500;2024-02-21T10:28:43;101318.78;;;9.77;100.00
72685;BME280;61365;52.162;4.500;2024-02-21T10:31:11;101322.44;;;9.95;100.00
72685;BME280;61365;52.162;4.500;2024-02-21T10:33:53;101310.25;;;10.00;100.00
72685;BME280;61365;52.162;4.500;2024-02-21T10:36:19;101310.22;;;9.96;100.00
72685;BME280;61365;52.162;4.500;2024-02-21T10:38:46;101324.19;;;9.96;100.00
72685;BME280;61365;52.162;4.500;2024-02-21T10:41:13;101332.25;;;10.18;100.00
72685;BME280;61365;52.162;4.500;2024-02-21T10:43:41;101328.56;;;9.97;100.00
72685;BME280;61365;52.162;4.500;2024-02-21T10:46:12;101325.75;;;9.75;100.00
72685;BME280;61365;52.162;4.500;2024-02-21T10:48:43;101318.72;;;9.71;100.00
72685;BME280;61365;52.162;4.500;2024-02-21T10:56:31;101302.25;;;9.88;100.00
72685;BME280;61365;52.162;4.500;2024-02-21T10:59:04;101304.09;;;9.95;100.00
72685;BME280;61365;52.162;4.500;2024-02-21T11:01:31;101294.41;;;9.88;100.00
72685;BME280;61365;52.162;4.500;2024-02-21T11:03:59;101292.59;;;9.82;100.00
72685;BME280;61365;52.162;4.500;2024-02-21T11:06:28;101281.25;;;9.85;100.00
72685;BME280;61365;52.162;4.500;2024-02-21T11:11:33;101272.28;;;9.58;100.00
72685;BME280;61365;52.162;4.500;2024-02-21T11:14:07;101253.97;;;9.61;100.00
72685;BME280;61365;52.162;4.500;2024-02-21T11:16:35;101246.19;;;9.70;100.00
72685;BME280;61365;52.162;4.500;2024-02-21T11:19:07;101238.38;;;9.75;100.00
72685;BME280;61365;52.162;4.500;2024-02-21T11:21:35;101239.31;;;9.85;100.00
72685;BME280;61365;52.162;4.500;2024-02-21T11:24:03;101241.28;;;10.09;100.00
72685;BME280;61365;52.162;4.500;2024-02-21T11:26:29;101230.69;;;10.00;100.00
72685;BME280;61365;52.162;4.500;2024-02-21T11:28:57;101224.66;;;10.07;100.00
72685;BME280;61365;52.162;4.500;2024-02-21T11:31:37;101214.19;;;10.12;100.00
72685;BME280;61365;52.162;4.500;2024-02-21T11:34:11;101205.53;;;10.20;100.00
72685;BME280;61365;52.162;4.500;2024-02-21T11:36:50;101190.75;;;10.33;100.00
72685;BME280;61365;52.162;4.500;2024-02-21T11:39:21;101179.25;;;10.16;100.00
72685;BME280;61365;52.162;4.500;2024-02-21T11:42:05;101166.19;;;10.22;100.00
72685;BME280;61365;52.162;4.500;2024-02-21T11:44:38;101184.75;;;10.56;100.00
72685;BME280;61365;52.162;4.500;2024-02-21T11:47:07;101175.97;;;10.51;100.00
72685;BME280;61365;52.162;4.500;2024-02-21T11:49:38;101171.56;;;10.48;100.00
72685;BME280;61365;52.162;4.500;2024-02-21T11:52:07;101133.16;;;10.58;100.00
72685;BME280;61365;52.162;4.500;2024-02-21T11:54:33;101143.63;;;10.57;100.00
72685;BME280;61365;52.162;4.500;2024-02-21T11:57:00;101132.22;;;10.48;100.00
72685;BME280;61365;52.162;4.500;2024-02-21T11:59:29;101123.53;;;10.66;100.00
72685;BME280;61365;52.162;4.500;2024-02-21T12:01:57;101110.34;;;10.43;100.00
72685;BME280;61365;52.162;4.500;2024-02-21T12:04:24;101105.97;;;10.39;100.00
72685;BME280;61365;52.162;4.500;2024-02-21T12:06:52;101099.00;;;10.49;100.00
72685;BME280;61365;52.162;4.500;2024-02-21T12:09:19;101087.66;;;10.53;100.00
72685;BME280;61365;52.162;4.500;2024-02-21T12:11:56;101073.69;;;10.65;100.00
72685;BME280;61365;52.162;4.500;2024-02-21T12:14:27;101079.78;;;10.55;100.00
72685;BME280;61365;52.162;4.500;2024-02-21T12:16:56;101065.81;;;10.66;100.00
72685;BME280;61365;52.162;4.500;2024-02-21T12:19:23;101056.19;;;10.65;100.00
72685;BME280;61365;52.162;4.500;2024-02-21T12:21:49;101029.09;;;10.94;100.00
72685;BME280;61365;52.162;4.500;2024-02-21T12:24:26;101020.31;;;10.71;100.00
72685;BME280;61365;52.162;4.500;2024-02-21T12:26:54;101012.47;;;10.81;100.00
72685;BME280;61365;52.162;4.500;2024-02-21T12:29:22;101014.22;;;10.78;100.00
72685;BME280;61365;52.162;4.500;2024-02-21T12:31:52;101003.72;;;10.92;100.00
72685;BME280;61365;52.162;4.500;2024-02-21T12:34:20;101005.44;;;10.51;100.00
72685;BME280;61365;52.162;4.500;2024-02-21T12:36:47;101008.94;;;10.56;100.00
72685;BME280;61365;52.162;4.500;2024-02-21T12:39:13;100999.31;;;10.58;100.00
72685;BME280;61365;52.162;4.500;2024-02-21T12:41:40;100989.69;;;10.66;100.00
72685;BME280;61365;52.162;4.500;2024-02-21T12:44:08;100980.09;;;10.82;100.00
72685;BME280;61365;52.162;4.500;2024-02-21T12:46:35;100978.34;;;10.85;100.00
72685;BME280;61365;52.162;4.500;2024-02-21T12:49:02;100976.56;;;10.66;100.00
72685;BME280;61365;52.162;4.500;2024-02-21T12:51:29;100980.97;;;10.94;100.00
72685;BME280;61365;52.162;4.500;2024-02-21T12:53:56;100967.81;;;10.64;100.00
72685;BME280;61365;52.162;4.500;2024-02-21T12:56:22;100976.56;;;10.48;100.00